Time;durP1;ratioP1;P1;durP2;ratioP2;P2;SDS_P1;SDS_P2;PMS_P1;PMS_P2;Temp;Humidity;BMP_temperature;BMP_pressure;BME280_temperature;BME280_humidity;BME280_pressure;Samples;Min_cycle;Max_cycle;Signal;HPM_P1;HPM_P2
2022/12/11 00:04:06;;;;;;;14.75;10.90;;;;;;;;;;10115450;28;20050;-65
2022/12/11 00:09:03;;;;;;;12.63;10.90;;;;;;;;;;10107505;28;20047;-65
2022/12/11 00:13:59;;;;;;;15.25;12.07;;;;;;;;;;10098994;28;20158;-65
2022/12/11 00:18:55;;;;;;;12.82;10.60;;;;;;;;;;10108378;28;20035;-65
2022/12/11 00:23:51;;;;;;;13.95;11.52;;;;;;;;;;10098591;28;20748;-65
2022/12/11 00:28:51;;;;;;;17.02;12.18;;;;;;;;;;10105628;28;20507;-65
2022/12/11 00:33:48;;;;;;;16.08;11.38;;;;;;;;;;10103754;28;20616;-65
2022/12/11 00:38:44;;;;;;;14.18;11.48;;;;;;;;;;10118028;28;20143;-65
2022/12/11 00:43:40;;;;;;;14.70;11.60;;;;;;;;;;10108973;28;20481;-65
2022/12/11 00:48:37;;;;;;;14.45;10.45;;;;;;;;;;10104498;28;20046;-65
2022/12/11 00:53:33;;;;;;;17.92;12.10;;;;;;;;;;10101242;28;20047;-65
2022/12/11 00:58:29;;;;;;;17.40;12.52;;;;;;;;;;10107340;28;20695;-65
2022/12/11 01:03:26;;;;;;;17.17;11.93;;;;;;;;;;10108329;28;20039;-65
2022/12/11 01:08:22;;;;;;;16.30;11.88;;;;;;;;;;10105903;28;20564;-65
2022/12/11 01:13:18;;;;;;;16.50;11.90;;;;;;;;;;10105531;28;20109;-65
2022/12/11 01:18:14;;;;;;;17.83;13.25;;;;;;;;;;10100029;28;20415;-65
2022/12/11 01:23:12;;;;;;;16.08;12.40;;;;;;;;;;10103755;28;20047;-65
2022/12/11 01:28:08;;;;;;;18.10;13.52;;;;;;;;;;10101075;28;20481;-65
2022/12/11 01:33:05;;;;;;;17.05;12.32;;;;;;;;;;10103006;28;20474;-65
2022/12/11 01:38:01;;;;;;;16.58;12.75;;;;;;;;;;10105575;28;20039;-65
2022/12/11 01:42:58;;;;;;;17.23;12.80;;;;;;;;;;10101911;28;20411;-65
2022/12/11 01:47:58;;;;;;;15.35;12.15;;;;;;;;;;10108726;28;20078;-65
2022/12/11 01:52:55;;;;;;;15.20;12.50;;;;;;;;;;10123342;28;20129;-65
2022/12/11 01:57:52;;;;;;;18.85;14.20;;;;;;;;;;10110021;28;20049;-65
2022/12/11 02:02:48;;;;;;;22.20;14.52;;;;;;;;;;10113684;28;20047;-65
2022/12/11 02:07:50;;;;;;;18.98;14.75;;;;;;;;;;10111262;28;20050;-65
2022/12/11 02:12:51;;;;;;;18.88;14.27;;;;;;;;;;10113392;28;20054;-65
2022/12/11 02:18:07;;;;;;;19.35;14.82;;;;;;;;;;10112859;28;20053;-65
2022/12/11 02:23:12;;;;;;;17.98;13.98;;;;;;;;;;10112701;28;20518;-65
2022/12/11 02:28:17;;;;;;;16.67;14.00;;;;;;;;;;10110350;28;20528;-65
2022/12/11 02:33:14;;;;;;;19.90;14.80;;;;;;;;;;10109967;28;20078;-64
2022/12/11 02:38:40;;;;;;;18.17;15.05;;;;;;;;;;10107861;28;20039;-65
2022/12/11 02:43:37;;;;;;;20.30;14.38;;;;;;;;;;10097566;28;20051;-64
2022/12/11 02:48:34;;;;;;;19.92;15.52;;;;;;;;;;10110790;28;20047;-64
2022/12/11 02:53:33;;;;;;;18.42;13.63;;;;;;;;;;10105859;28;20403;-65
2022/12/11 02:58:31;;;;;;;17.77;14.27;;;;;;;;;;10110071;28;20070;-66
2022/12/11 03:03:28;;;;;;;19.60;14.73;;;;;;;;;;10110865;28;20503;-65
2022/12/11 03:08:24;;;;;;;19.23;14.98;;;;;;;;;;10111209;28;20047;-65
2022/12/11 03:13:21;;;;;;;19.65;14.93;;;;;;;;;;10108573;28;20054;-65
2022/12/11 03:18:23;;;;;;;19.10;14.43;;;;;;;;;;10106438;28;20394;-65
2022/12/11 03:23:23;;;;;;;19.83;15.50;;;;;;;;;;10107982;28;20042;-65
2022/12/11 03:28:22;;;;;;;17.58;14.38;;;;;;;;;;10109125;28;20039;-65
2022/12/11 03:33:21;;;;;;;17.65;14.50;;;;;;;;;;10102928;28;20043;-65
2022/12/11 03:38:22;;;;;;;17.15;14.07;;;;;;;;;;10107778;28;20042;-66
2022/12/11 03:43:18;;;;;;;18.00;15.27;;;;;;;;;;10103999;28;20516;-65
2022/12/11 03:48:15;;;;;;;22.23;15.07;;;;;;;;;;10107952;28;20043;-65
2022/12/11 03:53:12;;;;;;;21.08;16.48;;;;;;;;;;10106166;28;20053;-65
2022/12/11 03:58:08;;;;;;;16.00;14.30;;;;;;;;;;10104723;28;20458;-65
2022/12/11 04:03:14;;;;;;;20.58;17.05;;;;;;;;;;10102277;28;20066;-65
2022/12/11 04:08:10;;;;;;;19.88;15.82;;;;;;;;;;10106050;28;20062;-65
2022/12/11 04:13:07;;;;;;;21.20;16.45;;;;;;;;;;10107265;28;20113;-66
2022/12/11 04:28:34;;;;;;;22.20;16.90;;;;;;;;;;10098147;28;20580;-65
2022/12/11 04:33:30;;;;;;;21.15;17.15;;;;;;;;;;10106659;28;20039;-65
2022/12/11 04:38:27;;;;;;;25.17;18.40;;;;;;;;;;10098862;28;20039;-65
2022/12/11 04:43:23;;;;;;;26.20;17.98;;;;;;;;;;10097773;28;20051;-65
2022/12/11 04:48:19;;;;;;;23.77;17.67;;;;;;;;;;10103633;28;20069;-65
2022/12/11 04:53:15;;;;;;;23.15;17.50;;;;;;;;;;10106952;28;20038;-66
2022/12/11 04:58:12;;;;;;;21.83;17.63;;;;;;;;;;10100193;28;20050;-65
2022/12/11 05:03:08;;;;;;;23.02;17.40;;;;;;;;;;10102685;28;20139;-65
2022/12/11 05:08:05;;;;;;;21.67;16.70;;;;;;;;;;10101625;28;20094;-65
2022/12/11 05:13:01;;;;;;;20.42;16.92;;;;;;;;;;10103520;28;20038;-66
2022/12/11 05:17:57;;;;;;;21.05;17.13;;;;;;;;;;10100295;28;20142;-65
2022/12/11 05:22:53;;;;;;;22.48;17.98;;;;;;;;;;10112331;28;20050;-65
2022/12/11 05:27:50;;;;;;;20.40;16.45;;;;;;;;;;10110603;28;20077;-65
2022/12/11 05:32:46;;;;;;;20.52;16.65;;;;;;;;;;10111041;28;20050;-65
2022/12/11 05:37:42;;;;;;;22.48;17.13;;;;;;;;;;10111441;28;20122;-65
2022/12/11 05:42:38;;;;;;;22.45;17.15;;;;;;;;;;10100583;28;20035;-65
2022/12/11 05:47:35;;;;;;;22.63;16.73;;;;;;;;;;10110890;28;20061;-65
2022/12/11 05:52:31;;;;;;;22.65;16.25;;;;;;;;;;10111972;28;20395;-65
2022/12/11 05:57:27;;;;;;;22.83;16.33;;;;;;;;;;10110793;28;20039;-65
2022/12/11 06:02:24;;;;;;;21.98;16.92;;;;;;;;;;10112777;28;20053;-65
2022/12/11 06:07:20;;;;;;;22.33;16.15;;;;;;;;;;10110356;28;20515;-65
2022/12/11 06:12:16;;;;;;;22.88;16.38;;;;;;;;;;10113282;28;20054;-66
2022/12/11 06:17:13;;;;;;;21.63;16.00;;;;;;;;;;10108103;28;20109;-64
2022/12/11 06:22:09;;;;;;;18.40;15.15;;;;;;;;;;10117369;28;20134;-65
2022/12/11 06:27:05;;;;;;;20.65;16.30;;;;;;;;;;10108326;28;20554;-64
2022/12/11 06:32:02;;;;;;;24.45;16.55;;;;;;;;;;10110890;28;20039;-65
2022/12/11 06:36:58;;;;;;;22.13;16.80;;;;;;;;;;10108758;28;20129;-65
2022/12/11 06:41:54;;;;;;;21.27;15.95;;;;;;;;;;10112229;28;20070;-64
2022/12/11 06:46:51;;;;;;;22.38;16.65;;;;;;;;;;10107898;28;20066;-65
2022/12/11 06:51:47;;;;;;;24.08;17.63;;;;;;;;;;10112730;28;20047;-65
2022/12/11 06:56:43;;;;;;;25.25;19.20;;;;;;;;;;10123793;28;20047;-65
2022/12/11 07:01:39;;;;;;;25.05;18.60;;;;;;;;;;10120245;28;20052;-65
2022/12/11 07:06:36;;;;;;;24.38;17.85;;;;;;;;;;10109743;28;20142;-65
2022/12/11 07:11:32;;;;;;;24.38;17.85;;;;;;;;;;10121530;28;20080;-65
2022/12/11 07:16:28;;;;;;;25.80;18.58;;;;;;;;;;10107937;28;20577;-65
2022/12/11 07:21:24;;;;;;;25.20;18.75;;;;;;;;;;10116010;28;20058;-65
2022/12/11 07:26:21;;;;;;;28.42;19.35;;;;;;;;;;10117785;28;20076;-65
2022/12/11 07:31:18;;;;;;;25.80;18.60;;;;;;;;;;10120086;28;20138;-65
2022/12/11 07:36:15;;;;;;;26.02;18.80;;;;;;;;;;10119418;28;20070;-65
2022/12/11 07:41:12;;;;;;;26.38;21.20;;;;;;;;;;10118562;28;20493;-65
2022/12/11 07:46:13;;;;;;;31.83;20.67;;;;;;;;;;10099104;28;20133;-64
2022/12/11 07:51:11;;;;;;;25.75;20.85;;;;;;;;;;10121601;28;20064;-65
2022/12/11 07:56:07;;;;;;;29.00;20.92;;;;;;;;;;10120001;28;20042;-65
2022/12/11 08:01:04;;;;;;;25.48;20.73;;;;;;;;;;10121141;28;20046;-66
2022/12/11 08:06:01;;;;;;;25.48;21.27;;;;;;;;;;10108779;28;20043;-65
2022/12/11 08:11:00;;;;;;;28.48;22.00;;;;;;;;;;10101731;28;20039;-65
2022/12/11 08:15:57;;;;;;;25.92;21.90;;;;;;;;;;10102577;28;20081;-65
2022/12/11 08:20:53;;;;;;;28.60;21.77;;;;;;;;;;10103614;28;20175;-65
2022/12/11 08:25:49;;;;;;;25.27;22.15;;;;;;;;;;10107947;28;20061;-65
2022/12/11 08:30:45;;;;;;;28.48;22.50;;;;;;;;;;10101635;28;20066;-65
2022/12/11 08:35:44;;;;;;;27.70;23.48;;;;;;;;;;10104754;28;20070;-65
2022/12/11 08:40:40;;;;;;;27.25;23.08;;;;;;;;;;10102726;28;20527;-65
2022/12/11 08:45:37;;;;;;;26.48;22.35;;;;;;;;;;10107674;28;20109;-65
2022/12/11 08:50:33;;;;;;;27.88;22.45;;;;;;;;;;10106164;28;20043;-64
2022/12/11 08:55:30;;;;;;;28.60;23.40;;;;;;;;;;10119400;28;20053;-65
2022/12/11 09:00:26;;;;;;;25.23;21.83;;;;;;;;;;10108897;28;20164;-65
2022/12/11 09:05:23;;;;;;;29.05;23.35;;;;;;;;;;10119123;28;20651;-65
2022/12/11 09:10:19;;;;;;;26.42;22.38;;;;;;;;;;10129457;28;20085;-66
2022/12/11 09:15:15;;;;;;;27.85;21.92;;;;;;;;;;10111578;28;20074;-65
2022/12/11 09:20:12;;;;;;;23.70;21.05;;;;;;;;;;10123022;28;20042;-65
2022/12/11 09:25:09;;;;;;;26.08;22.05;;;;;;;;;;10119750;28;20450;-66
2022/12/11 09:30:06;;;;;;;27.38;22.10;;;;;;;;;;10111920;28;20047;-67
2022/12/11 09:35:03;;;;;;;23.05;20.60;;;;;;;;;;10108542;28;20054;-66
2022/12/11 09:39:59;;;;;;;27.42;22.15;;;;;;;;;;10116356;28;20047;-65
2022/12/11 09:45:03;;;;;;;24.70;20.35;;;;;;;;;;10115630;28;20710;-65
2022/12/11 09:50:09;;;;;;;23.00;19.50;;;;;;;;;;10113791;28;20141;-64
2022/12/11 09:55:12;;;;;;;23.17;18.83;;;;;;;;;;10115970;28;20505;-65
2022/12/11 10:00:24;;;;;;;21.98;17.90;;;;;;;;;;10123919;28;20053;-65
2022/12/11 10:05:39;;;;;;;24.02;15.90;;;;;;;;;;10113568;28;21209;-65
2022/12/11 10:10:54;;;;;;;24.40;16.88;;;;;;;;;;10109624;28;20057;-65
2022/12/11 10:15:51;;;;;;;21.92;16.25;;;;;;;;;;10114429;28;20054;-65
2022/12/11 10:20:48;;;;;;;21.95;16.58;;;;;;;;;;10120548;28;20106;-64
2022/12/11 10:25:48;;;;;;;21.58;15.63;;;;;;;;;;10102919;28;20061;-65
2022/12/11 10:30:47;;;;;;;20.77;14.93;;;;;;;;;;10104538;28;20074;-65
2022/12/11 10:35:48;;;;;;;19.90;14.60;;;;;;;;;;10112524;28;20082;-65
2022/12/11 10:40:46;;;;;;;19.20;14.02;;;;;;;;;;10111221;28;20101;-65
2022/12/11 10:45:50;;;;;;;21.13;14.50;;;;;;;;;;10106587;28;20126;-65
2022/12/11 10:50:57;;;;;;;20.67;13.73;;;;;;;;;;10110654;28;20431;-65
2022/12/11 10:55:56;;;;;;;19.40;13.70;;;;;;;;;;10106996;28;20049;-65
2022/12/11 11:01:04;;;;;;;20.75;14.35;;;;;;;;;;10124482;28;20074;-65
2022/12/11 11:06:02;;;;;;;20.00;14.60;;;;;;;;;;10101623;28;20046;-65
2022/12/11 11:10:59;;;;;;;20.02;13.43;;;;;;;;;;10122571;28;20181;-65
2022/12/11 11:16:03;;;;;;;22.88;15.35;;;;;;;;;;10120993;28;20613;-66
2022/12/11 11:21:00;;;;;;;19.70;13.32;;;;;;;;;;10112500;28;20051;-65
2022/12/11 11:25:58;;;;;;;17.15;12.52;;;;;;;;;;10114686;28;20714;-65
2022/12/11 11:31:04;;;;;;;19.60;13.27;;;;;;;;;;10113295;28;20038;-65
2022/12/11 11:36:02;;;;;;;20.48;13.20;;;;;;;;;;10111402;28;20284;-66
2022/12/11 11:41:17;;;;;;;19.80;13.55;;;;;;;;;;10102995;28;20399;-65
2022/12/11 11:46:36;;;;;;;20.27;12.57;;;;;;;;;;10110912;28;20099;-65
2022/12/11 11:51:33;;;;;;;18.00;13.68;;;;;;;;;;10117470;28;20057;-65
2022/12/11 11:56:36;;;;;;;19.45;13.63;;;;;;;;;;10113122;28;20485;-65
2022/12/11 12:01:32;;;;;;;;;;;;;;;;;;10111348;28;20073;-65
2022/12/11 12:06:43;;;;;;;17.75;13.15;;;;;;;;;;10107277;28;19960;-65
2022/12/11 12:11:55;;;;;;;16.63;12.30;;;;;;;;;;10102549;28;20047;-65
2022/12/11 12:16:54;;;;;;;20.05;14.43;;;;;;;;;;10104721;28;20422;-65
2022/12/11 12:21:51;;;;;;;18.42;12.95;;;;;;;;;;10108064;28;20050;-65
2022/12/11 12:26:54;;;;;;;27.48;16.00;;;;;;;;;;10111792;28;20043;-66
2022/12/11 12:31:50;;;;;;;18.48;12.55;;;;;;;;;;10118642;28;20733;-65
2022/12/11 12:36:50;;;;;;;19.45;13.07;;;;;;;;;;10107659;28;20051;-65
2022/12/11 12:41:53;;;;;;;19.95;13.02;;;;;;;;;;10114925;28;20137;-65
2022/12/11 12:46:55;;;;;;;19.38;13.57;;;;;;;;;;10104653;28;20554;-65
2022/12/11 12:51:52;;;;;;;17.23;12.20;;;;;;;;;;10106767;28;20075;-64
2022/12/11 12:56:49;;;;;;;21.17;13.82;;;;;;;;;;10113109;28;20057;-65
2022/12/11 13:01:46;;;;;;;20.90;14.63;;;;;;;;;;10115278;28;20058;-64
2022/12/11 13:06:44;;;;;;;20.02;13.40;;;;;;;;;;10105360;28;20066;-64
2022/12/11 13:11:40;;;;;;;19.83;13.40;;;;;;;;;;10108024;28;20141;-64
2022/12/11 13:16:41;;;;;;;17.88;12.43;;;;;;;;;;10105376;28;20063;-64
2022/12/11 13:21:37;;;;;;;17.80;12.50;;;;;;;;;;10111379;28;20074;-64
2022/12/11 13:26:33;;;;;;;16.90;12.20;;;;;;;;;;10102757;28;20074;-64
2022/12/11 13:31:37;;;;;;;16.08;13.50;;;;;;;;;;10111987;28;20499;-64
2022/12/11 13:36:36;;;;;;;19.50;13.35;;;;;;;;;;10100935;28;20080;-66
2022/12/11 13:41:35;;;;;;;17.30;12.15;;;;;;;;;;10103617;28;20860;-65
2022/12/11 13:46:34;;;;;;;18.33;13.05;;;;;;;;;;10111106;28;20126;-67
2022/12/11 13:51:33;;;;;;;20.20;13.20;;;;;;;;;;10101951;28;20051;-65
2022/12/11 13:56:30;;;;;;;17.88;12.35;;;;;;;;;;10084594;28;20138;-65
2022/12/11 14:01:29;;;;;;;18.98;12.07;;;;;;;;;;10081337;28;20142;-65
2022/12/11 14:06:26;;;;;;;17.60;12.35;;;;;;;;;;10087836;28;20074;-66
2022/12/11 14:11:28;;;;;;;21.42;13.73;;;;;;;;;;10086134;28;20046;-64
2022/12/11 14:16:26;;;;;;;18.58;12.45;;;;;;;;;;10085729;28;20072;-66
2022/12/11 14:21:23;;;;;;;19.73;12.60;;;;;;;;;;10095341;28;20508;-64
2022/12/11 14:26:21;;;;;;;20.33;12.55;;;;;;;;;;10102756;28;20074;-65
2022/12/11 14:31:30;;;;;;;19.98;12.68;;;;;;;;;;10098167;28;20497;-65
2022/12/11 14:36:26;;;;;;;20.25;13.20;;;;;;;;;;10098625;28;20051;-65
2022/12/11 14:41:25;;;;;;;18.00;12.02;;;;;;;;;;10094868;28;20130;-65
2022/12/11 14:46:36;;;;;;;20.20;12.48;;;;;;;;;;10094718;28;20078;-65
2022/12/11 14:51:34;;;;;;;19.55;12.50;;;;;;;;;;10083836;28;20050;-65
2022/12/11 14:56:31;;;;;;;18.10;12.68;;;;;;;;;;10081635;28;20045;-66
2022/12/11 15:01:29;;;;;;;17.13;12.32;;;;;;;;;;10085397;28;20166;-66
2022/12/11 15:06:28;;;;;;;19.33;13.50;;;;;;;;;;10079308;28;20511;-66
2022/12/11 15:11:30;;;;;;;16.88;12.77;;;;;;;;;;10087698;28;20233;-66
2022/12/11 15:16:28;;;;;;;22.00;13.15;;;;;;;;;;10098735;28;20515;-66
2022/12/11 15:21:34;;;;;;;21.20;13.77;;;;;;;;;;10099174;28;20063;-65
2022/12/11 15:26:38;;;;;;;21.77;13.98;;;;;;;;;;10105982;28;20055;-66
2022/12/11 15:31:35;;;;;;;21.05;14.18;;;;;;;;;;10106126;28;20488;-66
2022/12/11 15:36:33;;;;;;;21.58;14.50;;;;;;;;;;10107864;28;20070;-66
2022/12/11 15:41:33;;;;;;;21.85;15.02;;;;;;;;;;10096459;28;20047;-66
2022/12/11 15:46:34;;;;;;;23.17;15.57;;;;;;;;;;10090318;28;20046;-66
2022/12/11 15:51:30;;;;;;;22.80;14.82;;;;;;;;;;10103793;28;20054;-65
2022/12/11 15:56:26;;;;;;;25.33;17.02;;;;;;;;;;10093606;28;20050;-66
2022/12/11 16:01:23;;;;;;;37.67;19.92;;;;;;;;;;10107624;28;20764;-66
2022/12/11 16:06:19;;;;;;;28.92;17.10;;;;;;;;;;10113855;28;20046;-66
2022/12/11 16:11:16;;;;;;;31.67;19.40;;;;;;;;;;10107540;28;20154;-66
2022/12/11 16:16:13;;;;;;;26.25;17.60;;;;;;;;;;10111672;28;20043;-66
2022/12/11 16:21:09;;;;;;;26.63;17.50;;;;;;;;;;10101541;28;20042;-65
2022/12/11 16:26:07;;;;;;;24.70;17.50;;;;;;;;;;10100024;28;20482;-66
2022/12/11 16:31:08;;;;;;;25.02;16.60;;;;;;;;;;10116476;28;20070;-65
2022/12/11 16:36:14;;;;;;;26.75;17.58;;;;;;;;;;10097931;28;20629;-66
2022/12/11 16:41:10;;;;;;;28.65;17.60;;;;;;;;;;10089706;28;20050;-65
2022/12/11 16:46:07;;;;;;;28.42;17.13;;;;;;;;;;10102895;28;20514;-66
2022/12/11 16:51:03;;;;;;;28.88;18.73;;;;;;;;;;10111292;28;20092;-65
2022/12/11 16:56:00;;;;;;;29.98;18.85;;;;;;;;;;10110344;28;20057;-64
2022/12/11 17:01:00;;;;;;;27.15;18.90;;;;;;;;;;10103436;28;20079;-64
2022/12/11 17:05:57;;;;;;;28.27;19.40;;;;;;;;;;10110002;28;20465;-64
2022/12/11 17:10:53;;;;;;;29.70;18.77;;;;;;;;;;10110448;28;20417;-64
2022/12/11 17:15:50;;;;;;;30.23;18.90;;;;;;;;;;10105897;28;20852;-64
2022/12/11 17:20:46;;;;;;;28.88;18.73;;;;;;;;;;10120355;28;20574;-64
2022/12/11 17:25:43;;;;;;;28.10;20.33;;;;;;;;;;10117241;28;20046;-64
2022/12/11 17:30:40;;;;;;;29.90;19.02;;;;;;;;;;10108454;28;20062;-64
2022/12/11 17:35:37;;;;;;;29.25;20.65;;;;;;;;;;10099576;28;20844;-65
2022/12/11 17:40:33;;;;;;;29.08;19.27;;;;;;;;;;10107478;28;20046;-64
2022/12/11 17:45:33;;;;;;;25.98;16.90;;;;;;;;;;10105714;28;20046;-64
2022/12/11 17:50:29;;;;;;;29.27;18.42;;;;;;;;;;10103730;28;20593;-65
2022/12/11 17:55:26;;;;;;;30.55;18.65;;;;;;;;;;10096510;28;20058;-64
2022/12/11 18:00:22;;;;;;;29.50;18.33;;;;;;;;;;10104812;28;20065;-64
2022/12/11 18:05:24;;;;;;;27.27;17.90;;;;;;;;;;10109246;28;20549;-64
2022/12/11 18:10:20;;;;;;;25.83;18.10;;;;;;;;;;10108749;28;20043;-64
2022/12/11 18:15:19;;;;;;;27.17;18.17;;;;;;;;;;10117810;28;20066;-64
2022/12/11 18:20:15;;;;;;;28.83;20.40;;;;;;;;;;10109980;28;20042;-63
2022/12/11 18:25:12;;;;;;;28.77;19.52;;;;;;;;;;10097855;28;20478;-66
2022/12/11 18:30:11;;;;;;;29.70;19.77;;;;;;;;;;10104140;28;20050;-66
2022/12/11 18:35:07;;;;;;;28.02;19.80;;;;;;;;;;10126608;28;20072;-66
2022/12/11 18:40:04;;;;;;;33.33;21.48;;;;;;;;;;10130016;28;20050;-64
2022/12/11 18:45:01;;;;;;;32.33;20.60;;;;;;;;;;10124625;28;20149;-65
2022/12/11 18:49:57;;;;;;;40.05;24.13;;;;;;;;;;10126422;28;20050;-64
2022/12/11 18:55:00;;;;;;;34.65;23.15;;;;;;;;;;10108887;28;20130;-64
2022/12/11 19:00:01;;;;;;;39.80;24.65;;;;;;;;;;10101420;28;20652;-65
2022/12/11 19:04:57;;;;;;;41.70;23.67;;;;;;;;;;10085757;28;20130;-64
2022/12/11 19:09:53;;;;;;;38.78;22.92;;;;;;;;;;10090644;28;20445;-64
2022/12/11 19:14:50;;;;;;;39.05;22.67;;;;;;;;;;10097165;28;20053;-64
2022/12/11 19:19:46;;;;;;;37.65;22.42;;;;;;;;;;10118193;28;20050;-65
2022/12/11 19:24:43;;;;;;;35.38;21.75;;;;;;;;;;10123481;28;20050;-65
2022/12/11 19:29:39;;;;;;;34.63;21.20;;;;;;;;;;10126353;28;21284;-65
2022/12/11 19:34:37;;;;;;;34.95;20.15;;;;;;;;;;10124458;28;20539;-65
2022/12/11 19:39:33;;;;;;;32.70;19.98;;;;;;;;;;10084729;28;20569;-65
2022/12/11 19:44:29;;;;;;;32.28;19.92;;;;;;;;;;10095567;28;20041;-65
2022/12/11 19:49:26;;;;;;;33.28;20.35;;;;;;;;;;10103828;28;20507;-65
2022/12/11 19:54:23;;;;;;;30.35;19.35;;;;;;;;;;10125534;28;20142;-65
2022/12/11 19:59:19;;;;;;;31.73;19.42;;;;;;;;;;10109709;28;20565;-66
2022/12/11 20:04:16;;;;;;;27.48;17.58;;;;;;;;;;10087896;28;20788;-65
2022/12/11 20:09:12;;;;;;;29.58;19.13;;;;;;;;;;10089979;28;20093;-65
2022/12/11 20:14:15;;;;;;;30.13;18.23;;;;;;;;;;10111863;28;20102;-65
2022/12/11 20:19:11;;;;;;;30.40;19.70;;;;;;;;;;10085069;28;20660;-65
2022/12/11 20:24:08;;;;;;;35.17;19.40;;;;;;;;;;10120844;28;20046;-65
2022/12/11 20:29:06;;;;;;;31.95;18.83;;;;;;;;;;10118716;28;20046;-65
2022/12/11 20:34:04;;;;;;;34.15;20.60;;;;;;;;;;10119853;28;20054;-65
2022/12/11 20:39:00;;;;;;;26.92;17.13;;;;;;;;;;10101217;28;20685;-65
2022/12/11 20:43:56;;;;;;;31.58;19.30;;;;;;;;;;10112715;28;20104;-65
2022/12/11 20:48:54;;;;;;;28.42;16.67;;;;;;;;;;10094909;28;20058;-65
2022/12/11 20:53:56;;;;;;;29.10;19.40;;;;;;;;;;10105642;28;20051;-65
2022/12/11 20:58:55;;;;;;;32.90;19.30;;;;;;;;;;10085101;28;20054;-65
2022/12/11 21:03:52;;;;;;;32.55;18.30;;;;;;;;;;10087614;28;20047;-69
2022/12/11 21:08:48;;;;;;;29.10;18.17;;;;;;;;;;10083362;28;20051;-68
2022/12/11 21:13:44;;;;;;;29.85;18.40;;;;;;;;;;10083067;28;20043;-69
2022/12/11 21:18:43;;;;;;;30.85;18.13;;;;;;;;;;10083536;28;20578;-69
2022/12/11 21:23:39;;;;;;;29.20;16.95;;;;;;;;;;10085063;28;20388;-68
2022/12/11 21:28:35;;;;;;;31.15;18.08;;;;;;;;;;10083570;28;20253;-69
2022/12/11 21:33:32;;;;;;;32.72;18.33;;;;;;;;;;10093976;28;20054;-68
2022/12/11 21:38:29;;;;;;;32.10;17.42;;;;;;;;;;10101089;28;20427;-68
2022/12/11 21:43:25;;;;;;;37.65;18.23;;;;;;;;;;10104128;28;20127;-68
2022/12/11 21:48:21;;;;;;;30.90;18.80;;;;;;;;;;10098119;28;20137;-68
2022/12/11 21:53:17;;;;;;;31.15;18.40;;;;;;;;;;10123998;28;20039;-70
2022/12/11 21:58:14;;;;;;;31.92;18.63;;;;;;;;;;10117474;28;20046;-70
2022/12/11 22:03:10;;;;;;;28.85;18.23;;;;;;;;;;10129454;28;20054;-70
2022/12/11 22:08:07;;;;;;;31.77;17.85;;;;;;;;;;10128324;28;20042;-70
2022/12/11 22:13:03;;;;;;;31.98;19.25;;;;;;;;;;10122119;28;20461;-68
2022/12/11 22:18:00;;;;;;;36.92;20.25;;;;;;;;;;10131522;28;20422;-68
2022/12/11 22:22:56;;;;;;;30.83;18.55;;;;;;;;;;10127443;28;20057;-68
2022/12/11 22:27:52;;;;;;;34.67;19.70;;;;;;;;;;10122280;28;20057;-66
2022/12/11 22:32:49;;;;;;;30.83;18.60;;;;;;;;;;10121041;28;20060;-68
2022/12/11 22:37:45;;;;;;;33.67;19.63;;;;;;;;;;10129947;28;20050;-67
2022/12/11 22:42:42;;;;;;;35.40;20.33;;;;;;;;;;10128354;28;20062;-68
2022/12/11 22:47:39;;;;;;;29.70;17.17;;;;;;;;;;10129887;28;20070;-67
2022/12/11 22:52:35;;;;;;;33.40;18.95;;;;;;;;;;10130196;28;20834;-67
2022/12/11 22:57:34;;;;;;;36.13;18.27;;;;;;;;;;10128878;28;20459;-67
2022/12/11 23:02:31;;;;;;;32.30;19.65;;;;;;;;;;10125447;28;20053;-70
2022/12/11 23:07:27;;;;;;;31.15;18.60;;;;;;;;;;10126952;28;20047;-67
2022/12/11 23:12:23;;;;;;;36.60;20.83;;;;;;;;;;10133219;28;20047;-67
2022/12/11 23:17:19;;;;;;;31.55;18.55;;;;;;;;;;10116395;28;20042;-68
2022/12/11 23:22:16;;;;;;;34.92;18.25;;;;;;;;;;10120616;28;20047;-68
2022/12/11 23:27:12;;;;;;;31.80;18.08;;;;;;;;;;10126764;28;20076;-68
2022/12/11 23:32:09;;;;;;;29.30;17.40;;;;;;;;;;10123711;28;20073;-67
2022/12/11 23:37:05;;;;;;;30.20;18.48;;;;;;;;;;10109548;28;20507;-67
2022/12/11 23:42:01;;;;;;;30.10;16.70;;;;;;;;;;10129301;28;20047;-67
2022/12/11 23:46:58;;;;;;;34.35;18.13;;;;;;;;;;10130330;28;20125;-69
2022/12/11 23:51:54;;;;;;;30.25;18.48;;;;;;;;;;10129319;28;20133;-67
2022/12/11 23:56:51;;;;;;;30.55;17.58;;;;;;;;;;10131348;28;20066;-67
